Time;durP1;ratioP1;P1;durP2;ratioP2;P2;SDS_P1;SDS_P2;PMS_P1;PMS_P2;Temp;Humidity;BMP_temperature;BMP_pressure;BME280_temperature;BME280_humidity;BME280_pressure;Samples;Min_cycle;Max_cycle;Signal;HPM_P1;HPM_P2
2022/05/08 00:02:16;;;;;;;28.67;25.67;;;12.30;98.00;;;;;;4995542;28;20181;-72
2022/05/08 00:04:42;;;;;;;28.03;24.30;;;12.40;98.00;;;;;;4995064;28;20180;-72
2022/05/08 00:07:07;;;;;;;28.40;25.37;;;12.30;97.90;;;;;;5023095;28;20262;-73
2022/05/08 00:09:33;;;;;;;29.53;26.27;;;12.30;97.90;;;;;;5026081;28;20253;-73
2022/05/08 00:11:59;;;;;;;25.87;23.13;;;12.30;97.80;;;;;;5005586;28;20204;-73
2022/05/08 00:14:25;;;;;;;27.63;24.70;;;12.30;97.70;;;;;;5047960;28;20199;-73
2022/05/08 00:16:50;;;;;;;27.20;22.93;;;12.30;97.70;;;;;;5047739;28;20180;-73
2022/05/08 00:19:16;;;;;;;25.83;22.33;;;12.30;97.70;;;;;;5013677;28;20371;-73
2022/05/08 00:21:42;;;;;;;24.63;21.83;;;12.30;97.70;;;;;;4995340;28;20220;-74
2022/05/08 00:24:08;;;;;;;23.60;20.13;;;12.30;97.70;;;;;;4994972;28;20267;-73
2022/05/08 00:26:34;;;;;;;25.70;22.43;;;12.20;97.70;;;;;;4986276;28;20251;-73
2022/05/08 00:28:59;;;;;;;26.60;22.97;;;12.20;97.70;;;;;;4994573;28;20216;-72
2022/05/08 00:31:25;;;;;;;27.00;23.97;;;12.20;97.70;;;;;;4994606;28;20192;-71
2022/05/08 00:33:51;;;;;;;23.73;21.17;;;12.20;97.70;;;;;;5027621;28;20196;-71
2022/05/08 00:36:17;;;;;;;25.80;22.67;;;12.00;97.60;;;;;;4995421;28;20199;-71
2022/05/08 00:38:43;;;;;;;30.43;22.63;;;12.00;97.60;;;;;;5031745;28;20212;-70
2022/05/08 00:41:09;;;;;;;30.30;23.47;;;12.00;97.70;;;;;;4982082;28;20270;-71
2022/05/08 00:43:40;;;;;;;29.77;23.10;;;12.00;97.70;;;;;;5046563;28;20192;-71
2022/05/08 00:46:08;;;;;;;26.10;22.07;;;12.00;97.70;;;;;;5039773;28;20194;-72
2022/05/08 00:48:34;;;;;;;26.87;23.77;;;12.00;97.70;;;;;;5014256;28;20196;-71
2022/05/08 00:51:03;;;;;;;28.53;24.43;;;12.00;97.70;;;;;;5014185;28;20184;-72
2022/05/08 00:53:46;;;;;;;25.73;20.77;;;12.00;97.70;;;;;;5014935;28;20187;-71
2022/05/08 00:56:13;;;;;;;21.33;19.13;;;11.90;97.70;;;;;;5007866;28;20223;-71
2022/05/08 00:58:41;;;;;;;22.17;19.90;;;11.90;97.70;;;;;;4988743;28;20230;-72
2022/05/08 01:01:08;;;;;;;22.43;18.97;;;11.90;97.70;;;;;;5005053;28;20276;-71
2022/05/08 01:03:34;;;;;;;25.57;22.80;;;11.90;97.80;;;;;;4994961;28;20176;-72
2022/05/08 01:06:04;;;;;;;25.33;22.57;;;11.90;97.80;;;;;;4994062;28;20188;-71
2022/05/08 01:08:31;;;;;;;23.97;21.17;;;11.90;97.80;;;;;;5003941;28;20195;-71
2022/05/08 01:10:58;;;;;;;23.17;20.70;;;11.90;97.80;;;;;;5030088;28;20187;-69
2022/05/08 01:13:24;;;;;;;23.43;20.93;;;11.90;97.80;;;;;;5029402;28;20237;-69
2022/05/08 01:15:50;;;;;;;21.40;19.10;;;11.90;97.80;;;;;;5046920;28;20187;-69
2022/05/08 01:18:16;;;;;;;22.07;19.77;;;11.90;97.80;;;;;;5013890;28;20204;-69
2022/05/08 01:20:44;;;;;;;22.13;19.73;;;11.90;97.80;;;;;;5014077;28;20175;-69
2022/05/08 01:23:11;;;;;;;22.30;19.90;;;11.90;97.80;;;;;;5013719;28;20196;-71
2022/05/08 01:25:51;;;;;;;24.17;21.50;;;11.90;97.80;;;;;;4998395;28;20192;-72
2022/05/08 01:28:17;;;;;;;19.97;17.90;;;11.90;97.80;;;;;;4995185;28;20176;-72
2022/05/08 01:30:45;;;;;;;25.03;20.47;;;11.90;97.90;;;;;;5009743;28;20207;-71
2022/05/08 01:33:11;;;;;;;25.33;22.70;;;11.90;97.90;;;;;;4992427;28;20191;-71
2022/05/08 01:35:37;;;;;;;22.73;20.33;;;11.90;97.80;;;;;;5029607;28;20183;-70
2022/05/08 01:38:07;;;;;;;24.27;21.63;;;11.90;97.90;;;;;;5029757;28;20188;-71
2022/05/08 01:40:33;;;;;;;23.87;20.67;;;11.90;97.90;;;;;;5028887;28;20243;-70
2022/05/08 01:42:59;;;;;;;24.10;21.57;;;12.00;97.90;;;;;;5046637;28;20176;-70
2022/05/08 01:45:25;;;;;;;22.53;19.80;;;12.00;97.90;;;;;;5013571;28;20334;-70
2022/05/08 01:50:36;;;;;;;24.10;20.37;;;12.00;97.90;;;;;;4994906;28;20263;-71
2022/05/08 01:53:02;;;;;;;24.50;20.90;;;12.00;97.90;;;;;;5021233;28;20195;-70
2022/05/08 01:55:28;;;;;;;25.50;21.83;;;12.00;97.90;;;;;;5012172;28;20198;-69
2022/05/08 01:57:54;;;;;;;29.80;21.83;;;12.00;97.90;;;;;;5012510;28;20285;-70
2022/05/08 02:00:20;;;;;;;27.17;23.70;;;12.00;97.90;;;;;;5031249;28;20216;-70
2022/05/08 02:02:48;;;;;;;25.47;20.50;;;12.00;97.90;;;;;;5009631;28;20180;-70
2022/05/08 02:05:20;;;;;;;23.83;21.13;;;12.00;97.90;;;;;;4994647;28;20244;-68
2022/05/08 02:07:47;;;;;;;23.67;20.77;;;12.00;97.90;;;;;;4993898;28;20287;-70
2022/05/08 02:10:14;;;;;;;22.90;19.17;;;12.00;97.90;;;;;;4993308;28;20251;-70
2022/05/08 02:12:41;;;;;;;26.03;23.23;;;12.00;97.90;;;;;;4989647;28;20194;-71
2022/05/08 02:15:08;;;;;;;24.77;22.17;;;12.00;97.90;;;;;;5013995;28;20180;-71
2022/05/08 02:17:35;;;;;;;28.20;24.00;;;12.00;97.90;;;;;;5000329;28;20250;-71
2022/05/08 02:20:01;;;;;;;24.23;21.57;;;12.00;97.90;;;;;;4997011;28;20239;-71
2022/05/08 02:22:26;;;;;;;25.40;22.37;;;12.00;97.90;;;;;;4997971;28;20220;-71
2022/05/08 02:24:52;;;;;;;23.90;21.23;;;12.10;97.90;;;;;;4980493;28;20287;-69
2022/05/08 02:27:18;;;;;;;26.43;22.17;;;12.00;97.90;;;;;;5004416;28;20180;-69
2022/05/08 02:29:48;;;;;;;17.93;16.10;;;12.00;97.90;;;;;;5032823;28;20180;-69
2022/05/08 02:32:14;;;;;;;20.73;18.50;;;12.00;97.90;;;;;;5016745;28;20176;-69
2022/05/08 02:34:40;;;;;;;22.70;19.70;;;12.00;97.90;;;;;;5000087;28;20188;-69
2022/05/08 02:37:06;;;;;;;21.77;18.60;;;12.00;97.90;;;;;;5012665;28;20250;-68
2022/05/08 02:39:32;;;;;;;23.03;20.43;;;12.00;97.90;;;;;;5013083;28;20324;-68
2022/05/08 02:41:57;;;;;;;19.23;17.23;;;12.00;97.90;;;;;;5017167;28;20188;-68
2022/05/08 02:44:23;;;;;;;23.77;21.07;;;12.00;97.90;;;;;;4996753;28;20184;-68
2022/05/08 02:46:49;;;;;;;22.47;20.03;;;12.00;97.90;;;;;;4996879;28;20184;-68
2022/05/08 02:49:14;;;;;;;21.57;19.33;;;12.00;97.80;;;;;;4996769;28;20196;-70
2022/05/08 02:51:40;;;;;;;21.97;19.67;;;11.90;97.80;;;;;;4980710;28;20185;-70
2022/05/08 02:54:06;;;;;;;24.77;21.57;;;11.90;97.80;;;;;;4996455;28;20184;-70
2022/05/08 02:59:16;;;;;;;21.53;19.33;;;11.90;97.80;;;;;;5025418;28;20227;-69
2022/05/08 03:01:41;;;;;;;20.77;18.57;;;11.90;97.80;;;;;;5015740;28;20184;-70
2022/05/08 03:04:07;;;;;;;21.30;19.00;;;11.90;97.80;;;;;;5015597;28;20196;-70
2022/05/08 03:06:33;;;;;;;24.03;21.57;;;11.90;97.80;;;;;;5032283;28;20176;-70
2022/05/08 03:08:59;;;;;;;22.83;20.40;;;11.80;97.80;;;;;;5014555;28;20191;-70
2022/05/08 03:11:28;;;;;;;21.27;19.07;;;11.80;97.80;;;;;;4994259;28;20198;-71
2022/05/08 03:13:55;;;;;;;20.07;18.07;;;11.80;97.70;;;;;;5048808;28;20206;-71
2022/05/08 03:16:22;;;;;;;19.30;17.40;;;11.80;97.70;;;;;;5015606;28;20196;-70
2022/05/08 03:18:49;;;;;;;19.17;17.27;;;11.80;97.70;;;;;;5016131;28;20211;-71
2022/05/08 03:21:15;;;;;;;23.93;21.37;;;11.80;97.80;;;;;;4997727;28;20199;-72
2022/05/08 03:23:41;;;;;;;22.00;19.70;;;11.80;97.80;;;;;;4995322;28;20188;-70
2022/05/08 03:26:08;;;;;;;21.27;18.97;;;11.80;97.80;;;;;;5012123;28;20189;-69
2022/05/08 03:28:35;;;;;;;23.13;20.67;;;11.80;97.80;;;;;;5012143;28;20181;-69
2022/05/08 03:31:02;;;;;;;23.43;20.93;;;11.80;97.80;;;;;;4996703;28;20199;-70
2022/05/08 03:33:28;;;;;;;20.23;18.13;;;11.80;97.80;;;;;;4996737;28;20260;-68
2022/05/08 03:35:55;;;;;;;23.00;20.00;;;11.80;97.80;;;;;;4995487;28;20238;-69
2022/05/08 03:38:21;;;;;;;20.27;17.17;;;11.80;97.80;;;;;;5004736;28;20242;-69
2022/05/08 03:40:47;;;;;;;22.77;20.37;;;11.80;97.80;;;;;;5031439;28;20243;-68
2022/05/08 03:43:13;;;;;;;23.33;18.67;;;11.80;97.80;;;;;;4999985;28;20190;-69
2022/05/08 03:45:39;;;;;;;20.40;18.23;;;11.80;97.80;;;;;;4995695;28;20180;-69
2022/05/08 03:48:05;;;;;;;21.53;19.30;;;11.70;97.80;;;;;;4995771;28;20184;-69
2022/05/08 03:50:31;;;;;;;20.07;17.53;;;11.80;97.70;;;;;;4995385;28;20192;-68
2022/05/08 03:53:01;;;;;;;20.57;18.37;;;11.70;97.80;;;;;;4995690;28;20184;-68
2022/05/08 03:55:27;;;;;;;18.30;16.40;;;11.70;97.80;;;;;;5001217;28;20267;-71
2022/05/08 03:57:53;;;;;;;21.43;19.13;;;11.80;97.80;;;;;;5011870;28;20195;-70
2022/05/08 04:00:21;;;;;;;19.60;17.50;;;11.70;97.80;;;;;;5013457;28;20228;-68
2022/05/08 04:02:47;;;;;;;19.27;17.20;;;11.70;97.80;;;;;;5032560;28;20179;-70
2022/05/08 04:05:13;;;;;;;21.97;19.67;;;11.70;97.80;;;;;;5013800;28;20188;-69
2022/05/08 04:07:38;;;;;;;23.33;19.37;;;11.70;97.80;;;;;;5015221;28;20194;-72
2022/05/08 04:10:05;;;;;;;22.00;19.70;;;11.70;97.80;;;;;;5027142;28;20191;-72
2022/05/08 04:12:31;;;;;;;22.30;19.97;;;11.70;97.80;;;;;;5027468;28;20202;-70
2022/05/08 04:14:57;;;;;;;23.03;20.50;;;11.70;97.80;;;;;;5030417;28;20286;-69
2022/05/08 04:17:23;;;;;;;20.27;18.10;;;11.70;97.80;;;;;;4989867;28;20195;-68
2022/05/08 04:19:49;;;;;;;21.73;18.57;;;11.80;97.80;;;;;;5029808;28;20210;-68
2022/05/08 04:24:59;;;;;;;23.13;20.07;;;11.80;97.90;;;;;;5013837;28;20195;-67
2022/05/08 04:27:25;;;;;;;21.73;19.43;;;11.80;97.90;;;;;;4997007;28;20192;-66
2022/05/08 04:29:50;;;;;;;24.20;20.83;;;11.80;97.90;;;;;;5009035;28;20194;-67
2022/05/08 04:32:16;;;;;;;20.13;18.03;;;11.90;97.90;;;;;;4989924;28;20200;-65
2022/05/08 04:34:41;;;;;;;20.57;18.47;;;11.90;97.90;;;;;;5012696;28;20282;-66
2022/05/08 04:37:07;;;;;;;21.60;18.50;;;11.90;97.90;;;;;;5029407;28;20233;-70
2022/05/08 04:39:33;;;;;;;22.00;18.67;;;11.90;97.90;;;;;;5013423;28;20245;-71
2022/05/08 04:41:59;;;;;;;22.63;20.13;;;11.90;97.90;;;;;;5012744;28;20262;-76
2022/05/08 04:44:25;;;;;;;22.93;20.37;;;11.90;97.90;;;;;;5029651;28;20195;-76
2022/05/08 04:46:50;;;;;;;23.27;19.47;;;11.90;97.90;;;;;;5046424;28;20180;-76
2022/05/08 04:49:16;;;;;;;25.20;22.57;;;11.90;97.90;;;;;;5013283;28;20194;-77
2022/05/08 04:51:42;;;;;;;20.93;18.80;;;11.90;97.90;;;;;;5029797;28;20206;-77
2022/05/08 04:54:08;;;;;;;23.30;19.13;;;11.90;97.90;;;;;;5012925;28;20191;-76
2022/05/08 04:56:33;;;;;;;20.47;18.37;;;12.00;97.90;;;;;;5012591;28;20250;-77
2022/05/08 04:58:59;;;;;;;22.30;20.00;;;12.00;97.90;;;;;;5029926;28;20208;-76
2022/05/08 05:01:41;;;;;;;24.67;22.17;;;12.00;97.90;;;;;;5013011;28;20202;-77
2022/05/08 05:04:07;;;;;;;22.60;20.20;;;12.00;97.80;;;;;;4997506;28;20179;-76
2022/05/08 05:06:32;;;;;;;24.07;21.50;;;12.00;97.90;;;;;;4997376;28;20199;-75
2022/05/08 05:08:59;;;;;;;23.10;20.70;;;12.00;97.80;;;;;;5013503;28;20191;-76
2022/05/08 05:11:24;;;;;;;24.30;21.03;;;12.00;97.90;;;;;;5046650;28;20210;-76
2022/05/08 05:13:50;;;;;;;20.53;18.43;;;12.00;97.90;;;;;;5030185;28;20176;-77
2022/05/08 05:16:15;;;;;;;20.50;17.40;;;12.10;97.90;;;;;;5013080;28;20275;-75
2022/05/08 05:18:41;;;;;;;19.70;17.13;;;12.10;97.90;;;;;;4994116;28;20223;-76
2022/05/08 05:21:07;;;;;;;19.83;17.73;;;12.10;97.90;;;;;;4994009;28;20184;-72
2022/05/08 05:23:36;;;;;;;26.90;21.13;;;12.10;97.90;;;;;;5013777;28;20195;-78
2022/05/08 05:26:02;;;;;;;22.07;18.80;;;12.20;97.90;;;;;;5013482;28;20180;-75
2022/05/08 05:28:29;;;;;;;22.23;19.80;;;12.20;97.90;;;;;;5014522;28;20271;-77
2022/05/08 05:30:55;;;;;;;21.57;19.37;;;12.30;97.90;;;;;;5030098;28;20191;-76
2022/05/08 05:33:20;;;;;;;22.57;20.20;;;12.30;97.90;;;;;;5013938;28;20200;-77
2022/05/08 05:35:46;;;;;;;22.87;20.47;;;12.30;97.90;;;;;;5029426;28;20203;-75
2022/05/08 05:38:11;;;;;;;23.23;20.83;;;12.30;97.90;;;;;;5029560;28;20203;-74
2022/05/08 05:40:37;;;;;;;24.73;22.13;;;12.30;97.90;;;;;;5013358;28;20248;-75
2022/05/08 05:43:03;;;;;;;21.30;19.10;;;12.40;97.90;;;;;;5009327;28;20196;-75
2022/05/08 05:45:28;;;;;;;19.17;17.20;;;12.40;97.90;;;;;;4993933;28;20188;-77
2022/05/08 05:47:54;;;;;;;21.73;19.53;;;12.40;97.90;;;;;;5013548;28;20287;-73
2022/05/08 05:50:21;;;;;;;22.17;19.97;;;12.40;97.90;;;;;;5000708;28;20199;-73
2022/05/08 05:52:47;;;;;;;21.50;19.10;;;12.50;97.90;;;;;;5016817;28;20187;-75
2022/05/08 05:55:13;;;;;;;22.43;19.90;;;12.60;97.90;;;;;;5047106;28;20191;-76
2022/05/08 05:57:39;;;;;;;22.50;20.20;;;12.60;97.90;;;;;;5016535;28;20202;-76
2022/05/08 06:00:13;;;;;;;25.17;20.37;;;12.60;97.90;;;;;;5033610;28;20311;-76
2022/05/08 06:02:40;;;;;;;25.43;22.63;;;12.70;98.00;;;;;;4999276;28;20187;-74
2022/05/08 06:05:07;;;;;;;26.13;22.10;;;12.70;97.90;;;;;;5017221;28;20206;-73
2022/05/08 06:07:34;;;;;;;29.73;24.63;;;12.70;97.90;;;;;;5012043;28;20185;-73
2022/05/08 06:10:00;;;;;;;24.73;20.63;;;12.80;97.90;;;;;;4997271;28;20196;-74
2022/05/08 06:12:26;;;;;;;19.97;17.50;;;12.80;97.90;;;;;;4999683;28;20203;-75
2022/05/08 06:14:52;;;;;;;20.73;18.50;;;12.80;97.90;;;;;;5033155;28;20195;-72
2022/05/08 06:17:17;;;;;;;23.00;20.60;;;12.80;97.90;;;;;;5022543;28;20233;-73
2022/05/08 06:19:43;;;;;;;23.07;20.57;;;12.90;97.90;;;;;;4996955;28;20263;-74
2022/05/08 06:22:09;;;;;;;21.47;19.27;;;12.90;97.90;;;;;;4996951;28;20184;-73
2022/05/08 06:24:35;;;;;;;21.80;18.63;;;13.00;97.80;;;;;;4999305;28;20196;-72
2022/05/08 06:27:01;;;;;;;23.23;20.93;;;13.00;97.80;;;;;;5048460;28;20202;-71
2022/05/08 06:29:27;;;;;;;22.87;20.67;;;13.00;97.80;;;;;;5014798;28;20199;-72
2022/05/08 06:31:53;;;;;;;24.27;21.67;;;13.10;97.80;;;;;;4980838;28;20205;-66
2022/05/08 06:34:19;;;;;;;23.03;20.73;;;13.10;97.80;;;;;;5013619;28;20200;-63
2022/05/08 06:36:45;;;;;;;22.87;20.57;;;13.10;97.70;;;;;;4997699;28;20199;-65
2022/05/08 06:39:11;;;;;;;22.37;20.07;;;13.20;97.60;;;;;;5029452;28;20247;-63
2022/05/08 06:41:36;;;;;;;23.93;21.53;;;13.30;97.60;;;;;;5009681;28;20188;-62
2022/05/08 06:44:02;;;;;;;23.43;20.27;;;13.30;97.50;;;;;;5015238;28;20191;-68
2022/05/08 06:46:32;;;;;;;20.50;18.50;;;13.30;97.50;;;;;;5011647;28;20219;-69
2022/05/08 06:49:05;;;;;;;24.70;22.10;;;13.30;97.50;;;;;;5031035;28;20192;-70
2022/05/08 06:51:31;;;;;;;22.30;20.07;;;13.30;97.50;;;;;;5011211;28;20203;-72
2022/05/08 06:53:57;;;;;;;22.47;20.27;;;13.50;97.50;;;;;;4995504;28;20188;-69
2022/05/08 06:56:25;;;;;;;20.50;18.40;;;13.50;97.40;;;;;;5028081;28;20192;-69
2022/05/08 07:01:36;;;;;;;17.37;15.77;;;13.60;97.30;;;;;;5011510;28;20207;-75
2022/05/08 07:04:07;;;;;;;18.73;16.93;;;13.60;97.20;;;;;;5041195;28;20195;-72
2022/05/08 07:06:33;;;;;;;17.10;15.50;;;13.60;97.20;;;;;;5012804;28;20191;-70
2022/05/08 07:08:58;;;;;;;19.00;17.10;;;13.60;97.20;;;;;;5029094;28;20192;-73
2022/05/08 07:11:25;;;;;;;19.63;17.83;;;13.70;97.20;;;;;;5013170;28;20202;-72
2022/05/08 07:13:51;;;;;;;21.10;18.97;;;13.70;97.00;;;;;;5030415;28;20227;-72
2022/05/08 07:16:17;;;;;;;18.90;17.03;;;13.70;97.10;;;;;;5028055;28;20230;-73
2022/05/08 07:18:43;;;;;;;22.63;20.53;;;13.80;97.10;;;;;;4998557;28;20208;-73
2022/05/08 07:21:08;;;;;;;22.40;20.10;;;13.90;97.20;;;;;;5005426;28;20199;-72
2022/05/08 07:23:34;;;;;;;18.40;16.57;;;14.00;97.10;;;;;;5015534;28;20176;-74
2022/05/08 07:26:00;;;;;;;19.43;17.70;;;14.10;96.90;;;;;;4996756;28;20188;-73
2022/05/08 07:28:27;;;;;;;19.27;17.37;;;14.20;96.40;;;;;;5045660;28;20222;-74
2022/05/08 07:30:54;;;;;;;21.20;19.20;;;14.30;96.50;;;;;;5012209;28;20235;-73
2022/05/08 07:33:19;;;;;;;18.17;16.47;;;14.50;96.60;;;;;;5012716;28;20185;-71
2022/05/08 07:38:31;;;;;;;16.63;15.03;;;14.60;95.90;;;;;;5011893;28;20238;-73
2022/05/08 07:40:57;;;;;;;16.57;15.07;;;14.60;95.10;;;;;;4989803;28;1202744;-71
2022/05/08 07:43:24;;;;;;;16.13;14.53;;;14.70;94.80;;;;;;5014454;28;20226;-70
2022/05/08 07:45:49;;;;;;;16.67;15.17;;;14.70;94.30;;;;;;5012375;28;20198;-70
2022/05/08 07:48:18;;;;;;;16.17;14.67;;;14.80;94.20;;;;;;5028256;28;20187;-70
2022/05/08 07:50:48;;;;;;;16.33;14.77;;;14.80;94.00;;;;;;5028178;28;20246;-69
2022/05/08 07:53:14;;;;;;;15.63;14.23;;;14.80;94.10;;;;;;5012724;28;20188;-71
2022/05/08 07:55:40;;;;;;;16.80;15.10;;;14.90;94.90;;;;;;5011726;28;20192;-70
2022/05/08 07:58:06;;;;;;;14.50;13.10;;;15.00;94.60;;;;;;5012101;28;20188;-70
2022/05/08 08:00:31;;;;;;;16.43;14.93;;;15.10;92.80;;;;;;5028869;28;20219;-70
2022/05/08 08:02:57;;;;;;;14.67;13.37;;;15.10;93.20;;;;;;4999796;28;20183;-70
2022/05/08 08:05:23;;;;;;;17.43;15.73;;;15.20;93.10;;;;;;5021580;28;20188;-70
2022/05/08 08:07:50;;;;;;;16.27;14.73;;;15.20;92.80;;;;;;5044740;28;20238;-69
2022/05/08 08:10:16;;;;;;;13.90;12.50;;;15.30;92.70;;;;;;5025937;28;20278;-70
2022/05/08 08:12:42;;;;;;;14.87;13.47;;;15.30;91.50;;;;;;5028355;28;20195;-68
2022/05/08 08:15:09;;;;;;;15.37;13.97;;;15.30;92.20;;;;;;5011886;28;20168;-69
2022/05/08 08:17:35;;;;;;;16.93;15.43;;;15.20;92.50;;;;;;4990643;28;20203;-69
2022/05/08 08:20:01;;;;;;;15.73;14.23;;;15.20;93.00;;;;;;5002413;28;20207;-69
2022/05/08 08:22:27;;;;;;;14.13;12.73;;;15.20;93.50;;;;;;5012296;28;20188;-69
2022/05/08 08:24:53;;;;;;;15.63;14.13;;;15.10;93.70;;;;;;5010946;28;20242;-69
2022/05/08 08:27:19;;;;;;;15.37;13.87;;;15.10;93.80;;;;;;4995215;28;20195;-69
2022/05/08 08:29:45;;;;;;;14.30;13.03;;;15.20;93.90;;;;;;5028928;28;20245;-68
2022/05/08 08:32:11;;;;;;;13.50;12.20;;;15.30;94.30;;;;;;5012104;28;20222;-69
2022/05/08 08:34:37;;;;;;;17.67;15.87;;;15.40;94.70;;;;;;5027797;28;20223;-70
2022/05/08 08:37:02;;;;;;;14.13;12.73;;;15.70;94.20;;;;;;5008391;28;20227;-69
2022/05/08 08:39:28;;;;;;;13.60;12.40;;;15.70;93.00;;;;;;5010097;28;20244;-70
2022/05/08 08:42:02;;;;;;;12.23;11.03;;;15.90;92.40;;;;;;5026676;28;20192;-69
2022/05/08 08:50:03;;;;;;;13.97;12.53;;;16.20;91.70;;;;;;5011126;28;20189;-69
2022/05/08 08:52:29;;;;;;;12.70;11.53;;;16.30;89.30;;;;;;5027413;28;20197;-69
2022/05/08 08:54:55;;;;;;;11.27;10.17;;;16.20;89.30;;;;;;5043833;28;20353;-69
2022/05/08 08:57:21;;;;;;;11.60;10.50;;;16.10;86.90;;;;;;5027920;28;20196;-69
2022/05/08 08:59:46;;;;;;;9.77;8.77;;;16.10;86.40;;;;;;5009987;28;20278;-68
2022/05/08 09:02:20;;;;;;;8.80;7.97;;;16.00;87.20;;;;;;5007866;28;20180;-68
2022/05/08 09:04:51;;;;;;;9.27;8.47;;;16.00;86.10;;;;;;5004090;28;20189;-68
2022/05/08 09:07:43;;;;;;;9.50;8.63;;;15.90;87.70;;;;;;4991997;28;20184;-69
2022/05/08 09:10:16;;;;;;;9.13;8.33;;;15.90;84.60;;;;;;4996525;28;20286;-69
2022/05/08 09:13:05;;;;;;;10.20;9.27;;;15.80;87.70;;;;;;4993045;28;20192;-69
2022/05/08 09:15:34;;;;;;;9.57;8.67;;;15.70;87.10;;;;;;5007070;28;20169;-69
2022/05/08 09:18:00;;;;;;;9.60;8.80;;;15.80;89.00;;;;;;5018848;28;20224;-69
2022/05/08 09:20:40;;;;;;;9.27;8.40;;;15.80;89.30;;;;;;4991396;28;20235;-68
2022/05/08 09:23:13;;;;;;;9.47;8.57;;;15.90;88.20;;;;;;4993299;28;20253;-69
2022/05/08 09:26:11;;;;;;;9.50;8.70;;;16.00;90.10;;;;;;5010238;28;20164;-69
2022/05/08 09:28:42;;;;;;;8.47;7.67;;;16.50;90.30;;;;;;4998606;28;20371;-69
2022/05/08 09:31:15;;;;;;;9.47;8.20;;;16.80;84.00;;;;;;5009990;28;20164;-68
2022/05/08 09:33:45;;;;;;;8.20;7.40;;;16.90;85.30;;;;;;5009429;28;20183;-69
2022/05/08 09:36:22;;;;;;;8.77;8.07;;;16.90;80.40;;;;;;5009707;28;20184;-68
2022/05/08 09:38:52;;;;;;;9.40;8.33;;;17.00;81.30;;;;;;4998266;28;20251;-69
2022/05/08 09:41:23;;;;;;;9.70;7.60;;;17.00;82.80;;;;;;4992855;28;20194;-68
2022/05/08 09:43:51;;;;;;;10.30;9.23;;;16.90;84.70;;;;;;5008692;28;20192;-68
2022/05/08 09:46:17;;;;;;;8.87;7.97;;;17.00;85.20;;;;;;5025280;28;20211;-68
2022/05/08 09:48:43;;;;;;;10.30;9.30;;;17.00;87.00;;;;;;5025930;28;20196;-68
2022/05/08 09:51:11;;;;;;;9.00;8.20;;;17.10;87.20;;;;;;5010766;28;20238;-68
2022/05/08 09:53:39;;;;;;;9.63;8.83;;;17.10;87.30;;;;;;5010352;28;20176;-68
2022/05/08 09:56:10;;;;;;;8.67;7.97;;;17.10;86.50;;;;;;5010426;28;20172;-68
2022/05/08 09:58:36;;;;;;;8.90;8.00;;;17.30;85.70;;;;;;4991434;28;20185;-68
2022/05/08 10:01:02;;;;;;;9.27;8.47;;;17.30;85.50;;;;;;5022146;28;20183;-68
2022/05/08 10:03:29;;;;;;;8.93;8.13;;;17.60;84.30;;;;;;5011033;28;20188;-67
2022/05/08 10:05:57;;;;;;;8.80;8.00;;;17.50;85.30;;;;;;4993915;28;20234;-68
2022/05/08 10:08:26;;;;;;;9.20;8.27;;;17.50;85.70;;;;;;5009148;28;20188;-68
2022/05/08 10:13:56;;;;;;;8.33;7.53;;;17.60;86.30;;;;;;5010883;28;20238;-68
2022/05/08 10:16:59;;;;;;;8.57;7.83;;;17.70;86.70;;;;;;5039965;28;20191;-69
2022/05/08 10:19:28;;;;;;;10.30;8.40;;;17.60;86.90;;;;;;5002941;28;20207;-69
2022/05/08 10:21:56;;;;;;;8.23;7.53;;;17.70;85.30;;;;;;5023956;28;20191;-67
2022/05/08 10:24:31;;;;;;;8.03;7.33;;;17.80;87.00;;;;;;5038059;28;20259;-67
2022/05/08 10:27:10;;;;;;;7.90;7.20;;;17.90;87.50;;;;;;5009874;28;20172;-68
2022/05/08 10:29:36;;;;;;;9.07;8.00;;;17.90;82.30;;;;;;5009119;28;20187;-67
2022/05/08 10:32:03;;;;;;;9.70;7.57;;;17.90;83.10;;;;;;5025188;28;20309;-68
2022/05/08 10:34:33;;;;;;;8.60;7.73;;;18.00;77.70;;;;;;5010821;28;20214;-68
2022/05/08 10:37:14;;;;;;;7.87;7.17;;;18.10;79.20;;;;;;5029414;28;20184;-67
2022/05/08 10:39:42;;;;;;;8.30;7.60;;;18.00;81.60;;;;;;5008845;28;20240;-67
2022/05/08 10:42:33;;;;;;;7.87;7.13;;;18.10;81.20;;;;;;5006424;28;20190;-68
2022/05/08 10:45:00;;;;;;;7.53;6.93;;;18.30;84.60;;;;;;5012222;28;20187;-67
2022/05/08 10:47:32;;;;;;;7.37;6.67;;;18.50;79.40;;;;;;5012125;28;20192;-67
2022/05/08 10:49:59;;;;;;;8.03;7.33;;;18.60;79.00;;;;;;5008695;28;20192;-67
2022/05/08 10:52:25;;;;;;;7.53;6.83;;;18.80;77.90;;;;;;5009313;28;20184;-67
2022/05/08 10:55:05;;;;;;;6.80;6.13;;;18.90;78.30;;;;;;4992970;28;20191;-68
2022/05/08 10:57:35;;;;;;;7.50;6.90;;;19.10;77.80;;;;;;4992733;28;20176;-68
2022/05/08 11:00:03;;;;;;;7.03;6.50;;;19.00;78.40;;;;;;5002446;28;20314;-68
2022/05/08 11:02:52;;;;;;;8.73;7.27;;;19.10;74.70;;;;;;5046799;28;20191;-67
2022/05/08 11:05:24;;;;;;;6.73;6.17;;;19.20;77.00;;;;;;5029843;28;20370;-68
2022/05/08 11:07:51;;;;;;;7.20;6.40;;;19.10;75.10;;;;;;4996184;28;20219;-68
2022/05/08 11:10:39;;;;;;;8.10;6.57;;;19.00;76.10;;;;;;5011809;28;20238;-67
2022/05/08 11:13:10;;;;;;;7.73;6.63;;;18.80;76.00;;;;;;5003549;28;20192;-67
2022/05/08 11:15:44;;;;;;;7.00;6.40;;;18.70;77.50;;;;;;5009400;28;20187;-67
2022/05/08 11:18:24;;;;;;;7.73;7.03;;;18.50;80.70;;;;;;5012066;28;20295;-67
2022/05/08 11:20:57;;;;;;;8.10;7.27;;;18.50;80.90;;;;;;5008972;28;20269;-67
2022/05/08 11:23:24;;;;;;;7.40;6.80;;;18.50;80.90;;;;;;4999566;28;20196;-67
2022/05/08 11:25:53;;;;;;;7.17;6.27;;;18.60;77.40;;;;;;5013566;28;20196;-67
2022/05/08 11:28:21;;;;;;;10.13;6.20;;;18.80;76.40;;;;;;4995374;28;20192;-67
2022/05/08 11:30:48;;;;;;;7.63;6.77;;;18.90;78.50;;;;;;5009747;28;20260;-66
2022/05/08 11:36:06;;;;;;;7.80;7.10;;;19.30;76.90;;;;;;5013317;28;20279;-67
2022/05/08 11:38:48;;;;;;;7.50;6.17;;;19.30;77.60;;;;;;5013003;28;20184;-66
2022/05/08 11:41:32;;;;;;;7.70;6.90;;;19.30;73.20;;;;;;5011767;28;20203;-66
2022/05/08 11:44:15;;;;;;;8.90;7.67;;;19.50;73.30;;;;;;5010904;28;20179;-66
2022/05/08 11:46:48;;;;;;;9.00;6.80;;;19.60;74.10;;;;;;5012279;28;20190;-67
2022/05/08 11:49:18;;;;;;;8.07;7.27;;;19.60;71.80;;;;;;4996632;28;20237;-67
2022/05/08 11:51:53;;;;;;;8.13;7.33;;;19.60;70.00;;;;;;5012123;28;20180;-67
2022/05/08 11:54:32;;;;;;;8.63;7.37;;;19.50;68.60;;;;;;5011990;28;20175;-67
2022/05/08 11:57:12;;;;;;;7.70;6.90;;;19.70;71.30;;;;;;5011729;28;20195;-67
2022/05/08 11:59:38;;;;;;;6.47;5.97;;;20.00;73.10;;;;;;5011306;28;20207;-67
2022/05/08 12:02:04;;;;;;;7.27;6.67;;;20.30;73.00;;;;;;5024997;28;20237;-67
2022/05/08 12:04:33;;;;;;;8.37;7.10;;;20.50;69.90;;;;;;5015506;28;20183;-67
2022/05/08 12:07:14;;;;;;;7.07;6.37;;;20.70;72.90;;;;;;5016251;28;20186;-66
2022/05/08 12:09:51;;;;;;;6.93;6.23;;;21.00;68.70;;;;;;5015461;28;20206;-66
2022/05/08 12:12:30;;;;;;;6.43;5.80;;;21.90;62.70;;;;;;5011098;28;20214;-66
2022/05/08 12:15:03;;;;;;;8.17;5.80;;;22.40;61.40;;;;;;5025578;28;20219;-66
2022/05/08 12:17:42;;;;;;;6.17;5.57;;;22.80;62.00;;;;;;4991538;28;20242;-65
2022/05/08 12:20:19;;;;;;;6.30;5.80;;;23.70;60.00;;;;;;5009130;28;20208;-65
2022/05/08 12:22:56;;;;;;;6.60;6.00;;;24.30;55.40;;;;;;5008474;28;20201;-65
2022/05/08 12:25:22;;;;;;;7.67;5.50;;;24.80;50.80;;;;;;5025793;28;20234;-66
2022/05/08 12:27:48;;;;;;;6.07;5.47;;;24.80;51.60;;;;;;5010347;28;20172;-67
2022/05/08 12:30:15;;;;;;;6.10;5.60;;;24.20;54.10;;;;;;4995523;28;20194;-66
2022/05/08 12:32:41;;;;;;;5.83;5.33;;;23.70;55.30;;;;;;5009181;28;20203;-65
2022/05/08 12:35:08;;;;;;;6.00;5.40;;;23.90;54.40;;;;;;5001200;28;20222;-66
2022/05/08 12:37:34;;;;;;;5.47;4.97;;;23.60;57.30;;;;;;5027255;28;20195;-65
2022/05/08 12:39:59;;;;;;;6.13;5.63;;;22.90;60.30;;;;;;5010330;28;20247;-65
2022/05/08 12:42:25;;;;;;;7.03;6.20;;;22.60;61.70;;;;;;5011900;28;20179;-66
2022/05/08 12:44:51;;;;;;;6.10;5.57;;;22.20;62.60;;;;;;5010570;28;20295;-65
2022/05/08 12:47:18;;;;;;;7.57;6.90;;;21.90;61.90;;;;;;4994592;28;20195;-65
2022/05/08 12:49:44;;;;;;;9.33;6.87;;;21.50;64.30;;;;;;4994249;28;20188;-65
2022/05/08 12:52:10;;;;;;;9.13;7.20;;;21.00;60.90;;;;;;4995758;28;20184;-66
2022/05/08 12:54:36;;;;;;;7.03;6.40;;;20.60;62.10;;;;;;4998711;28;20200;-65
2022/05/08 12:57:05;;;;;;;8.97;7.23;;;20.40;61.40;;;;;;5044577;28;20192;-66
2022/05/08 12:59:43;;;;;;;8.03;7.20;;;20.10;61.50;;;;;;5007064;28;20208;-65
2022/05/08 13:02:19;;;;;;;8.43;6.80;;;19.70;61.80;;;;;;4995572;28;20188;-65
2022/05/08 13:04:48;;;;;;;7.37;6.40;;;19.90;64.70;;;;;;4991425;28;20184;-64